Time;durP1;ratioP1;P1;durP2;ratioP2;P2;SDS_P1;SDS_P2;PMS_P1;PMS_P2;Temp;Humidity;BMP_temperature;BMP_pressure;BME280_temperature;BME280_humidity;BME280_pressure;Samples;Min_cycle;Max_cycle;Signal;HPM_P1;HPM_P2
2022/08/14 00:01:57;;;;;;;;;;;;;;;18.69;60.62;99707.50;5051280;28;19929;-81
2022/08/14 00:04:27;;;;;;;;;;;;;;;18.70;60.52;99703.66;5050844;28;19983;-80
2022/08/14 00:07:08;;;;;;;;;;;;;;;18.67;60.67;99704.22;5051277;28;19929;-81
2022/08/14 00:09:38;;;;;;;;;;;;;;;18.65;60.71;99701.75;5050868;28;19929;-81
2022/08/14 00:12:31;;;;;;;;;;;;;;;18.65;60.66;99706.41;5050651;28;19978;-81
2022/08/14 00:15:21;;;;;;;;;;;;;;;18.70;60.29;99698.19;5050850;28;19929;-82
2022/08/14 00:17:49;;;;;;;;;;;;;;;18.68;60.06;99703.09;5050938;28;19933;-81
2022/08/14 00:20:23;;;;;;;;;;;;;;;18.63;60.27;99706.69;5050793;28;20364;-82
2022/08/14 00:23:02;;;;;;;;;;;;;;;18.60;60.24;99704.50;5049679;28;19932;-81
2022/08/14 00:25:43;;;;;;;;;;;;;;;18.60;59.89;99702.59;5050842;28;20422;-81
2022/08/14 00:28:30;;;;;;;;;;;;;;;18.61;59.75;99701.50;5050419;28;20043;-82
2022/08/14 00:31:01;;;;;;;;;;;;;;;18.59;59.71;99700.16;5050595;28;19929;-82
2022/08/14 00:33:32;;;;;;;;;;;;;;;18.56;59.73;99697.97;5049499;28;19928;-82
2022/08/14 00:36:19;;;;;;;;;;;;;;;18.56;59.48;99698.78;5050543;28;19929;-81
2022/08/14 00:39:07;;;;;;;;;;;;;;;18.50;60.11;99696.34;5050806;28;19995;-81
2022/08/14 00:41:35;;;;;;;;;;;;;;;18.45;60.10;99691.72;5053121;28;19935;-83
2022/08/14 00:44:05;;;;;;;;;;;;;;;18.36;60.34;99685.22;5054615;28;19957;-81
2022/08/14 00:46:31;;;;;;;;;;;;;;;18.32;60.33;99687.69;5054536;28;19968;-81
2022/08/14 00:48:59;;;;;;;;;;;;;;;18.25;60.91;99689.06;5052799;28;19960;-82
2022/08/14 00:51:31;;;;;;;;;;;;;;;18.14;61.48;99691.03;5054208;28;19929;-81
2022/08/14 00:54:07;;;;;;;;;;;;;;;18.02;61.82;99694.03;5054585;28;20414;-82
2022/08/14 00:56:47;;;;;;;;;;;;;;;17.95;62.51;99693.50;5054452;28;19929;-82
2022/08/14 00:59:16;;;;;;;;;;;;;;;17.88;62.64;99690.28;5054152;28;20023;-80
2022/08/14 01:01:43;;;;;;;;;;;;;;;17.81;63.20;99687.81;5053237;28;20368;-81
2022/08/14 01:04:11;;;;;;;;;;;;;;;17.78;63.53;99688.34;5069370;28;19929;-80
2022/08/14 01:07:02;;;;;;;;;;;;;;;17.74;63.69;99684.53;5039608;28;20315;-80
2022/08/14 01:09:33;;;;;;;;;;;;;;;17.69;63.87;99690.81;5068651;28;19928;-82
2022/08/14 01:12:01;;;;;;;;;;;;;;;17.63;63.88;99697.38;5052611;28;19929;-81
2022/08/14 01:14:29;;;;;;;;;;;;;;;17.56;64.39;99696.81;5053625;28;19929;-81
2022/08/14 01:16:56;;;;;;;;;;;;;;;17.51;64.40;99694.09;5054317;28;20308;-80
2022/08/14 01:22:14;;;;;;;;;;;;;;;17.38;64.66;99690.00;5052669;28;20405;-80
2022/08/14 01:24:45;;;;;;;;;;;;;;;17.36;64.75;99692.19;5053892;28;20032;-81
2022/08/14 01:27:13;;;;;;;;;;;;;;;17.31;64.99;99693.00;5052387;28;20419;-81
2022/08/14 01:29:40;;;;;;;;;;;;;;;17.30;64.94;99696.00;5035940;28;20361;-82
2022/08/14 01:32:30;;;;;;;;;;;;;;;17.24;65.02;99694.34;5053324;28;20035;-81
2022/08/14 01:35:08;;;;;;;;;;;;;;;17.22;65.74;99691.91;5037413;28;19960;-82
2022/08/14 01:37:55;;;;;;;;;;;;;;;17.18;65.64;99692.72;5061383;28;19976;-81
2022/08/14 01:40:26;;;;;;;;;;;;;;;17.11;66.14;99684.78;5051809;28;19928;-81
2022/08/14 01:43:10;;;;;;;;;;;;;;;17.07;66.00;99694.63;5053656;28;19929;-81
2022/08/14 01:45:37;;;;;;;;;;;;;;;17.01;66.13;99693.78;5053186;28;19929;-81
2022/08/14 01:48:07;;;;;;;;;;;;;;;17.01;66.36;99698.41;5053404;28;19975;-81
2022/08/14 01:50:40;;;;;;;;;;;;;;;16.99;66.22;99693.25;5051335;28;19975;-81
2022/08/14 01:53:08;;;;;;;;;;;;;;;16.98;66.18;99697.06;5053153;28;19982;-81
2022/08/14 01:55:37;;;;;;;;;;;;;;;16.97;66.12;99700.88;5068442;28;19928;-82
2022/08/14 01:58:09;;;;;;;;;;;;;;;16.96;66.18;99698.41;5053232;28;20459;-81
2022/08/14 02:00:52;;;;;;;;;;;;;;;16.93;66.16;99699.75;5053049;28;19933;-81
2022/08/14 02:03:22;;;;;;;;;;;;;;;16.89;66.24;99706.88;5052993;28;19974;-82
2022/08/14 02:05:49;;;;;;;;;;;;;;;16.90;66.11;99709.31;5052050;28;20138;-82
2022/08/14 02:08:16;;;;;;;;;;;;;;;16.95;65.97;99705.78;5052661;28;19928;-82
2022/08/14 02:11:16;;;;;;;;;;;;;;;16.92;66.17;99713.69;5052881;28;19935;-81
2022/08/14 02:13:45;;;;;;;;;;;;;;;16.90;66.33;99713.94;5053269;28;20406;-81
2022/08/14 02:16:16;;;;;;;;;;;;;;;16.90;66.26;99709.31;5052672;28;19929;-82
2022/08/14 02:18:49;;;;;;;;;;;;;;;16.93;66.13;99716.13;5051780;28;19936;-81
2022/08/14 02:21:17;;;;;;;;;;;;;;;16.95;66.11;99718.59;5052425;28;19971;-81
2022/08/14 02:23:49;;;;;;;;;;;;;;;16.95;65.96;99710.41;5052704;28;19972;-82
2022/08/14 02:26:23;;;;;;;;;;;;;;;16.96;65.81;99722.94;5052318;28;20427;-81
2022/08/14 02:29:00;;;;;;;;;;;;;;;17.00;65.78;99724.06;5035462;28;19945;-81
2022/08/14 02:31:31;;;;;;;;;;;;;;;17.01;65.83;99721.03;5052181;28;19929;-82
2022/08/14 02:34:20;;;;;;;;;;;;;;;17.04;65.85;99723.25;5052563;28;19928;-81
2022/08/14 02:36:52;;;;;;;;;;;;;;;17.08;65.81;99726.25;5051436;28;20023;-82
2022/08/14 02:39:31;;;;;;;;;;;;;;;17.07;65.55;99730.88;5051601;28;20447;-82
2022/08/14 02:41:58;;;;;;;;;;;;;;;17.08;65.60;99731.69;5052209;28;19929;-81
2022/08/14 02:44:29;;;;;;;;;;;;;;;17.17;65.59;99727.38;5052045;28;19928;-81
2022/08/14 02:47:05;;;;;;;;;;;;;;;17.25;65.21;99735.00;5052249;28;20380;-81
2022/08/14 02:49:40;;;;;;;;;;;;;;;17.31;64.98;99728.47;5050773;28;19929;-81
2022/08/14 02:52:11;;;;;;;;;;;;;;;17.35;65.07;99726.03;5051860;28;19956;-81
2022/08/14 02:54:58;;;;;;;;;;;;;;;17.41;64.86;99724.13;5050937;28;19971;-81
2022/08/14 02:57:26;;;;;;;;;;;;;;;17.47;64.76;99731.19;5052018;28;19928;-81
2022/08/14 03:00:12;;;;;;;;;;;;;;;17.57;64.34;99736.66;5051963;28;19929;-82
2022/08/14 03:02:50;;;;;;;;;;;;;;;17.65;64.08;99732.59;5051441;28;19959;-83
2022/08/14 03:05:29;;;;;;;;;;;;;;;17.71;63.96;99726.84;5051539;28;19935;-82
2022/08/14 03:08:03;;;;;;;;;;;;;;;17.76;64.01;99729.56;5051677;28;20009;-82
2022/08/14 03:10:33;;;;;;;;;;;;;;;17.80;64.33;99734.50;5051565;28;19929;-82
2022/08/14 03:13:15;;;;;;;;;;;;;;;17.83;64.10;99731.25;5050311;28;19939;-81
2022/08/14 03:15:52;;;;;;;;;;;;;;;17.89;64.30;99730.13;5051750;28;20026;-82
2022/08/14 03:18:24;;;;;;;;;;;;;;;17.96;64.05;99733.41;5051353;28;19968;-82
2022/08/14 03:21:10;;;;;;;;;;;;;;;18.02;64.16;99734.19;5052216;28;20069;-82
2022/08/14 03:23:37;;;;;;;;;;;;;;;18.06;64.09;99727.91;5050108;28;19984;-81
2022/08/14 03:26:09;;;;;;;;;;;;;;;18.12;64.01;99726.81;5066127;28;19929;-81
2022/08/14 03:28:44;;;;;;;;;;;;;;;18.21;63.99;99724.34;5050215;28;19929;-82
2022/08/14 03:31:11;;;;;;;;;;;;;;;18.30;63.77;99727.31;5051410;28;19941;-81
2022/08/14 03:33:39;;;;;;;;;;;;;;;18.40;63.52;99730.81;5051173;28;20371;-80
2022/08/14 03:36:11;;;;;;;;;;;;;;;18.53;63.31;99726.66;5051804;28;20346;-80
2022/08/14 03:38:58;;;;;;;;;;;;;;;18.68;62.78;99733.19;5051277;28;19929;-83
2022/08/14 03:41:46;;;;;;;;;;;;;;;18.81;62.56;99724.38;5051312;28;20016;-82
2022/08/14 03:44:18;;;;;;;;;;;;;;;18.90;62.28;99728.19;5066003;28;19960;-82
2022/08/14 03:47:05;;;;;;;;;;;;;;;19.01;61.99;99731.66;5051355;28;19971;-82
2022/08/14 03:49:34;;;;;;;;;;;;;;;19.12;61.97;99726.97;5049734;28;19933;-81
2022/08/14 03:52:08;;;;;;;;;;;;;;;19.22;61.78;99726.91;5065526;28;20406;-81
2022/08/14 03:54:58;;;;;;;;;;;;;;;19.37;61.29;99732.25;5051288;28;19935;-81
2022/08/14 03:57:31;;;;;;;;;;;;;;;19.42;61.22;99737.69;5050951;28;19929;-81
2022/08/14 04:00:08;;;;;;;;;;;;;;;19.48;61.11;99731.06;5051108;28;20462;-81
2022/08/14 04:02:53;;;;;;;;;;;;;;;19.53;60.80;99716.53;5050020;28;19930;-81
2022/08/14 04:05:20;;;;;;;;;;;;;;;19.57;61.00;99722.25;5050976;28;20091;-82
2022/08/14 04:07:48;;;;;;;;;;;;;;;19.58;60.96;99723.88;5051242;28;19928;-82
2022/08/14 04:10:37;;;;;;;;;;;;;;;19.68;60.74;99732.84;5050651;28;19936;-81
2022/08/14 04:13:05;;;;;;;;;;;;;;;19.76;60.57;99733.34;5049994;28;19942;-81
2022/08/14 04:15:35;;;;;;;;;;;;;;;19.85;60.31;99735.19;5051998;28;19928;-83
2022/08/14 04:18:22;;;;;;;;;;;;;;;19.93;60.21;99731.00;5054979;28;20395;-83
2022/08/14 04:20:49;;;;;;;;;;;;;;;19.98;60.28;99733.69;5054651;28;19941;-82
2022/08/14 04:23:21;;;;;;;;;;;;;;;20.06;60.05;99726.75;5053119;28;20012;-80
2022/08/14 04:25:55;;;;;;;;;;;;;;;20.15;60.02;99727.75;5069830;28;19954;-82
2022/08/14 04:28:23;;;;;;;;;;;;;;;20.16;59.84;99742.28;5054326;28;19940;-82
2022/08/14 04:31:12;;;;;;;;;;;;;;;20.27;59.66;99730.91;5053170;28;20035;-82
2022/08/14 04:33:41;;;;;;;;;;;;;;;20.35;59.54;99733.00;5054276;28;20249;-81
2022/08/14 04:36:09;;;;;;;;;;;;;;;20.45;59.29;99736.75;5054494;28;20446;-82
2022/08/14 04:44:20;;;;;;;;;;;;;;;20.71;58.72;99738.09;5054306;28;20023;-82
2022/08/14 04:49:49;;;;;;;;;;;;;;;20.87;58.40;99743.38;5054409;28;19940;-81
2022/08/14 04:52:24;;;;;;;;;;;;;;;20.97;58.42;99735.00;5052427;28;20019;-81
2022/08/14 04:54:51;;;;;;;;;;;;;;;21.05;58.27;99739.03;5054030;28;19929;-81
2022/08/14 04:57:20;;;;;;;;;;;;;;;21.16;58.11;99735.81;5052934;28;20384;-81
2022/08/14 04:59:48;;;;;;;;;;;;;;;21.27;57.60;99736.50;5053310;28;19935;-81
2022/08/14 05:02:24;;;;;;;;;;;;;;;21.38;57.26;99734.41;5053864;28;19928;-82
2022/08/14 05:04:51;;;;;;;;;;;;;;;21.51;57.06;99732.88;5016883;28;19929;-81
2022/08/14 05:07:24;;;;;;;;;;;;;;;21.60;56.91;99736.56;4700682;28;9999804;-82
2022/08/14 05:10:11;;;;;;;;;;;;;;;21.72;56.46;99736.88;5050674;28;19928;-81
2022/08/14 05:12:47;;;;;;;;;;;;;;;21.84;56.10;99728.19;5049242;28;19929;-83
2022/08/14 05:15:38;;;;;;;;;;;;;;;21.92;55.75;99732.97;5065346;28;19929;-82
2022/08/14 05:18:13;;;;;;;;;;;;;;;22.00;55.52;99726.81;5050163;28;20019;-82
2022/08/14 05:20:45;;;;;;;;;;;;;;;22.08;55.29;99728.84;5049894;28;19929;-82
2022/08/14 05:23:34;;;;;;;;;;;;;;;22.22;55.19;99731.63;5050320;28;19974;-83
2022/08/14 05:26:11;;;;;;;;;;;;;;;22.35;54.47;99732.75;5048435;28;19964;-83
2022/08/14 05:28:45;;;;;;;;;;;;;;;22.47;54.38;99730.31;5050114;28;20325;-83
2022/08/14 05:31:17;;;;;;;;;;;;;;;22.57;53.81;99731.22;5050831;28;19979;-82
2022/08/14 05:33:48;;;;;;;;;;;;;;;22.67;53.71;99733.78;5050109;28;19929;-82
2022/08/14 05:36:22;;;;;;;;;;;;;;;22.77;53.39;99730.81;5064018;28;20003;-83
2022/08/14 05:38:51;;;;;;;;;;;;;;;22.88;53.31;99728.63;5049427;28;19960;-82
2022/08/14 05:41:18;;;;;;;;;;;;;;;22.98;52.93;99727.63;5064465;28;19933;-83
2022/08/14 05:43:47;;;;;;;;;;;;;;;23.12;52.44;99722.91;5048949;28;20027;-81
2022/08/14 05:46:23;;;;;;;;;;;;;;;23.22;51.99;99717.16;5048390;28;20358;-82
2022/08/14 05:49:04;;;;;;;;;;;;;;;23.37;52.03;99729.78;5042771;28;20599;-83
2022/08/14 05:51:34;;;;;;;;;;;;;;;23.47;51.81;99723.16;5064880;28;20713;-82
2022/08/14 05:54:01;;;;;;;;;;;;;;;23.57;51.61;99722.91;5049026;28;20514;-82
2022/08/14 05:56:39;;;;;;;;;;;;;;;23.60;51.43;99716.81;5048552;28;20026;-84
2022/08/14 05:59:07;;;;;;;;;;;;;;;23.68;50.98;99718.78;5047902;28;20030;-80
2022/08/14 06:01:34;;;;;;;;;;;;;;;23.77;50.79;99722.44;5046145;28;19928;-82
2022/08/14 06:04:01;;;;;;;;;;;;;;;23.85;50.62;99723.66;5047044;28;19929;-81
2022/08/14 06:06:30;;;;;;;;;;;;;;;23.95;50.30;99712.34;5047414;28;19929;-82
2022/08/14 06:09:04;;;;;;;;;;;;;;;24.08;50.14;99716.13;5034095;28;19929;-83
2022/08/14 06:11:36;;;;;;;;;;;;;;;24.15;49.56;99710.94;5048782;28;19929;-81
2022/08/14 06:14:09;;;;;;;;;;;;;;;24.25;48.86;99711.81;5048777;28;19928;-80
2022/08/14 06:16:49;;;;;;;;;;;;;;;24.38;48.33;99708.97;5048174;28;20398;-82
2022/08/14 06:19:19;;;;;;;;;;;;;;;24.53;47.43;99715.19;5048959;28;19929;-81
2022/08/14 06:21:49;;;;;;;;;;;;;;;24.67;46.93;99712.31;5047888;28;19936;-80
2022/08/14 06:24:24;;;;;;;;;;;;;;;24.83;45.79;99714.28;5026930;28;19932;-82
2022/08/14 06:26:51;;;;;;;;;;;;;;;24.92;45.25;99717.06;5048482;28;19951;-82
2022/08/14 06:29:30;;;;;;;;;;;;;;;25.04;44.72;99713.63;5032069;28;20046;-80
2022/08/14 06:32:01;;;;;;;;;;;;;;;25.12;44.23;99712.03;5061653;28;20472;-81
2022/08/14 06:34:48;;;;;;;;;;;;;;;25.25;43.56;99711.91;5047056;28;19932;-80
2022/08/14 06:37:39;;;;;;;;;;;;;;;25.24;41.85;99710.25;5042050;28;19965;-81
2022/08/14 06:40:08;;;;;;;;;;;;;;;25.32;41.21;99703.13;5062051;28;19928;-82
2022/08/14 06:42:51;;;;;;;;;;;;;;;25.39;40.87;99714.47;5031629;28;20431;-80
2022/08/14 06:45:20;;;;;;;;;;;;;;;25.54;41.10;99717.91;5046442;28;20031;-82
2022/08/14 06:47:52;;;;;;;;;;;;;;;25.56;40.72;99716.44;5048670;28;19928;-83
2022/08/14 06:50:44;;;;;;;;;;;;;;;25.65;40.46;99716.41;5028874;28;19940;-82
2022/08/14 06:53:13;;;;;;;;;;;;;;;25.72;40.61;99716.72;5044789;28;19929;-83
2022/08/14 06:55:44;;;;;;;;;;;;;;;25.76;40.75;99716.88;5047578;28;19929;-81
2022/08/14 06:58:25;;;;;;;;;;;;;;;25.76;40.82;99712.16;5061263;28;19928;-81
2022/08/14 07:06:44;;;;;;;;;;;;;;;26.15;40.15;99721.34;5047635;28;20083;-84
2022/08/14 07:09:13;;;;;;;;;;;;;;;26.22;39.43;99712.53;5047960;28;19971;-84
2022/08/14 07:11:48;;;;;;;;;;;;;;;26.11;38.98;99718.44;5047652;28;19967;-83
2022/08/14 07:14:16;;;;;;;;;;;;;;;25.90;39.71;99715.59;5048902;28;20400;-84
2022/08/14 07:16:43;;;;;;;;;;;;;;;25.89;40.18;99708.41;5047464;28;19971;-84
2022/08/14 07:19:10;;;;;;;;;;;;;;;26.00;40.14;99716.34;5048221;28;19976;-85
2022/08/14 07:21:37;;;;;;;;;;;;;;;26.20;39.82;99707.31;5065273;28;20015;-84
2022/08/14 07:24:05;;;;;;;;;;;;;;;26.32;39.85;99706.63;5050936;28;19929;-85
2022/08/14 07:26:47;;;;;;;;;;;;;;;26.44;39.66;99708.69;5049703;28;20023;-85
2022/08/14 07:29:15;;;;;;;;;;;;;;;26.50;39.64;99710.94;5048946;28;19929;-85
2022/08/14 07:31:43;;;;;;;;;;;;;;;26.53;39.56;99710.28;5050266;28;19929;-85
2022/08/14 07:34:12;;;;;;;;;;;;;;;26.68;39.62;99711.66;5050028;28;19933;-83
2022/08/14 07:36:59;;;;;;;;;;;;;;;26.79;39.64;99710.16;5049141;28;20398;-84
2022/08/14 07:39:27;;;;;;;;;;;;;;;26.98;39.40;99712.44;5048253;28;19933;-84
2022/08/14 07:41:54;;;;;;;;;;;;;;;27.17;38.87;99709.22;5048302;28;19928;-84
2022/08/14 07:44:21;;;;;;;;;;;;;;;27.21;36.85;99709.38;5050543;28;20383;-85
2022/08/14 07:47:02;;;;;;;;;;;;;;;27.26;36.27;99705.59;5066673;28;19929;-84
2022/08/14 07:49:30;;;;;;;;;;;;;;;27.44;36.70;99707.84;5048458;28;19935;-85
2022/08/14 07:51:58;;;;;;;;;;;;;;;27.55;36.14;99708.25;5052593;28;19940;-87
2022/08/14 07:54:25;;;;;;;;;;;;;;;27.61;35.94;99706.06;5053761;28;19928;-86
2022/08/14 07:56:59;;;;;;;;;;;;;;;27.59;36.27;99714.72;5054895;28;20403;-86
2022/08/14 07:59:40;;;;;;;;;;;;;;;27.76;36.12;99712.94;5054897;28;19983;-86
2022/08/14 08:02:14;;;;;;;;;;;;;;;27.97;36.17;99710.91;5053577;28;19929;-86
2022/08/14 08:04:49;;;;;;;;;;;;;;;27.98;35.59;99708.94;5020981;28;19929;-86
2022/08/14 08:07:21;;;;;;;;;;;;;;;27.91;36.00;99709.53;5053565;28;19935;-87
2022/08/14 08:09:49;;;;;;;;;;;;;;;28.20;36.00;99708.53;5052649;28;19944;-88
2022/08/14 08:12:19;;;;;;;;;;;;;;;28.56;35.55;99712.47;5053323;28;20511;-84
2022/08/14 08:14:50;;;;;;;;;;;;;;;28.63;35.01;99704.38;5049212;28;20034;-87
2022/08/14 08:17:30;;;;;;;;;;;;;;;28.79;34.15;99704.50;5033897;28;19972;-86
2022/08/14 08:20:14;;;;;;;;;;;;;;;29.08;33.73;99713.72;5044648;28;20395;-84
2022/08/14 08:22:42;;;;;;;;;;;;;;;28.88;33.08;99699.59;5051698;28;19929;-85
2022/08/14 08:25:19;;;;;;;;;;;;;;;29.02;33.36;99701.19;5044015;28;19936;-83
2022/08/14 08:28:09;;;;;;;;;;;;;;;29.34;33.39;99711.28;5050124;28;20023;-84
2022/08/14 08:30:52;;;;;;;;;;;;;;;29.78;32.84;99708.59;5051168;28;19928;-86
2022/08/14 08:33:41;;;;;;;;;;;;;;;29.76;31.10;99713.69;5048662;28;19943;-83
2022/08/14 08:36:10;;;;;;;;;;;;;;;29.62;30.98;99701.34;5051779;28;19998;-83
2022/08/14 08:38:45;;;;;;;;;;;;;;;29.97;30.49;99705.09;5053596;28;20383;-86
2022/08/14 08:41:52;;;;;;;;;;;;;;;30.05;30.40;99703.28;5043631;28;20457;-85
2022/08/14 08:44:33;;;;;;;;;;;;;;;30.15;30.40;99699.16;5051237;28;19964;-86
2022/08/14 08:47:04;;;;;;;;;;;;;;;30.32;30.47;99703.59;5053790;28;20376;-86
2022/08/14 08:49:41;;;;;;;;;;;;;;;30.51;29.78;99691.72;5053112;28;19974;-86
2022/08/14 08:52:25;;;;;;;;;;;;;;;30.74;30.25;99697.41;5052505;28;19929;-86
2022/08/14 08:55:10;;;;;;;;;;;;;;;31.27;29.51;99695.00;5053795;28;20023;-87
2022/08/14 08:58:16;;;;;;;;;;;;;;;31.52;28.98;99695.53;5052056;28;19960;-87
2022/08/14 09:00:52;;;;;;;;;;;;;;;31.68;28.31;99698.25;5052690;28;19933;-87
2022/08/14 09:03:23;;;;;;;;;;;;;;;31.56;28.15;99692.81;5036050;28;20309;-86
2022/08/14 09:05:52;;;;;;;;;;;;;;;31.36;27.78;99692.81;5053384;28;19934;-87
2022/08/14 09:08:25;;;;;;;;;;;;;;;31.55;27.99;99692.03;5051997;28;20347;-86
2022/08/14 09:11:01;;;;;;;;;;;;;;;31.62;27.68;99696.91;5061428;28;19928;-86
2022/08/14 09:13:44;;;;;;;;;;;;;;;30.97;28.51;99691.97;5030815;28;19940;-86
2022/08/14 09:16:11;;;;;;;;;;;;;;;31.31;28.30;99690.31;5033197;28;19928;-86
2022/08/14 09:18:47;;;;;;;;;;;;;;;31.59;28.14;99678.94;5034082;28;19937;-88
2022/08/14 09:21:14;;;;;;;;;;;;;;;32.09;27.81;99687.44;5052733;28;19933;-89
2022/08/14 09:23:42;;;;;;;;;;;;;;;31.87;27.87;99681.44;5053081;28;20466;-86
2022/08/14 09:26:41;;;;;;;;;;;;;;;32.26;27.30;99678.53;5052492;28;19929;-88
2022/08/14 09:29:17;;;;;;;;;;;;;;;32.76;27.06;99681.28;5052859;28;20396;-85
2022/08/14 09:31:54;;;;;;;;;;;;;;;33.30;26.13;99682.00;5051368;28;19933;-88
2022/08/14 09:34:26;;;;;;;;;;;;;;;33.77;25.83;99675.75;5026340;28;19928;-86
2022/08/14 09:37:12;;;;;;;;;;;;;;;34.26;25.33;99671.81;5068992;28;20395;-90
2022/08/14 09:39:45;;;;;;;;;;;;;;;34.71;24.95;99674.53;5051826;28;20417;-87
2022/08/14 09:42:23;;;;;;;;;;;;;;;34.79;24.31;99667.78;5035619;28;20399;-86
2022/08/14 09:45:01;;;;;;;;;;;;;;;34.71;24.63;99668.91;5052043;28;19928;-87
2022/08/14 09:47:44;;;;;;;;;;;;;;;34.99;24.45;99671.06;5066701;28;19932;-86
2022/08/14 09:50:15;;;;;;;;;;;;;;;34.92;24.46;99671.84;5052605;28;19975;-86
2022/08/14 09:52:54;;;;;;;;;;;;;;;34.78;24.36;99666.16;5051913;28;20031;-85
2022/08/14 09:55:23;;;;;;;;;;;;;;;34.47;24.50;99676.75;5050360;28;19963;-86
2022/08/14 09:57:53;;;;;;;;;;;;;;;34.67;24.48;99673.72;5053221;28;19975;-85
2022/08/14 10:00:24;;;;;;;;;;;;;;;34.35;24.22;99671.47;5051139;28;19961;-86
2022/08/14 10:03:01;;;;;;;;;;;;;;;33.78;24.74;99670.94;5039465;28;19936;-84
2022/08/14 10:05:35;;;;;;;;;;;;;;;33.80;25.47;99674.16;5062682;28;20315;-86
2022/08/14 10:08:15;;;;;;;;;;;;;;;33.73;25.82;99671.31;5032096;28;19987;-84
2022/08/14 10:10:51;;;;;;;;;;;;;;;33.55;25.50;99669.16;5031105;28;19971;-82
2022/08/14 10:13:29;;;;;;;;;;;;;;;33.13;26.30;99664.63;5030484;28;19986;-84
2022/08/14 10:16:15;;;;;;;;;;;;;;;32.63;26.85;99672.34;5049956;28;19998;-83
2022/08/14 10:19:04;;;;;;;;;;;;;;;32.27;27.10;99666.19;5034259;28;19929;-84
2022/08/14 10:21:36;;;;;;;;;;;;;;;31.42;27.71;99668.25;5051520;28;19996;-85
2022/08/14 10:24:07;;;;;;;;;;;;;;;30.85;27.91;99668.66;5051327;28;19963;-84
2022/08/14 10:26:52;;;;;;;;;;;;;;;30.42;28.81;99678.81;5050622;28;20395;-83
2022/08/14 10:29:33;;;;;;;;;;;;;;;30.27;29.17;99681.59;5065767;28;20350;-84
2022/08/14 10:32:02;;;;;;;;;;;;;;;30.18;29.40;99674.22;5066954;28;19935;-85
2022/08/14 10:34:51;;;;;;;;;;;;;;;30.04;29.25;99679.44;5065900;28;19928;-86
2022/08/14 10:37:18;;;;;;;;;;;;;;;29.78;29.95;99669.63;5049865;28;19929;-85
2022/08/14 10:40:00;;;;;;;;;;;;;;;29.86;29.99;99675.41;5051279;28;19928;-85
2022/08/14 10:42:47;;;;;;;;;;;;;;;29.91;29.97;99669.56;5053272;28;20027;-85
2022/08/14 10:45:21;;;;;;;;;;;;;;;30.11;29.66;99671.25;5056909;28;19933;-84
2022/08/14 10:47:51;;;;;;;;;;;;;;;30.22;29.34;99672.31;5054725;28;19950;-84
2022/08/14 10:50:44;;;;;;;;;;;;;;;30.32;29.55;99672.97;5053287;28;20375;-85
2022/08/14 10:53:12;;;;;;;;;;;;;;;30.54;29.79;99658.41;5053697;28;20031;-85
2022/08/14 10:55:41;;;;;;;;;;;;;;;30.90;29.05;99670.34;5055568;28;19929;-85
2022/08/14 10:58:12;;;;;;;;;;;;;;;31.28;28.69;99668.75;5054946;28;20419;-84
2022/08/14 11:00:52;;;;;;;;;;;;;;;31.61;28.22;99671.00;5053980;28;20020;-85
2022/08/14 11:03:24;;;;;;;;;;;;;;;32.28;27.32;99673.38;5058488;28;19982;-85
2022/08/14 11:06:19;;;;;;;;;;;;;;;33.14;26.18;99666.25;5075350;28;20299;-85
2022/08/14 11:08:46;;;;;;;;;;;;;;;33.57;25.22;99672.34;5046021;28;19963;-86
2022/08/14 11:11:16;;;;;;;;;;;;;;;34.09;24.68;99667.69;5058544;28;19939;-85
2022/08/14 11:13:45;;;;;;;;;;;;;;;35.11;23.80;99669.94;5060926;28;19933;-85
2022/08/14 11:16:17;;;;;;;;;;;;;;;35.66;23.05;99658.50;5060434;28;19929;-86
2022/08/14 11:19:01;;;;;;;;;;;;;;;35.65;23.19;99668.13;5072761;28;19925;-85
2022/08/14 11:21:28;;;;;;;;;;;;;;;36.20;22.65;99659.34;5055837;28;19935;-87
2022/08/14 11:23:59;;;;;;;;;;;;;;;36.11;22.63;99664.59;5051510;28;20374;-86
2022/08/14 11:26:29;;;;;;;;;;;;;;;35.48;22.93;99641.59;5052678;28;19935;-85
2022/08/14 11:29:02;;;;;;;;;;;;;;;35.16;23.63;99661.16;5051674;28;19929;-84
2022/08/14 11:31:30;;;;;;;;;;;;;;;35.16;24.30;99650.72;5052983;28;20329;-85
2022/08/14 11:34:04;;;;;;;;;;;;;;;34.85;24.66;99648.59;5051893;28;19928;-86
2022/08/14 11:36:36;;;;;;;;;;;;;;;34.17;25.14;99648.94;5050094;28;20062;-84
2022/08/14 11:39:25;;;;;;;;;;;;;;;32.95;26.18;99656.00;5043658;28;19989;-86
2022/08/14 11:42:03;;;;;;;;;;;;;;;32.04;27.24;99654.25;5047350;28;20285;-85
2022/08/14 11:44:51;;;;;;;;;;;;;;;31.90;27.52;99660.34;5051740;28;19960;-86
2022/08/14 11:47:23;;;;;;;;;;;;;;;31.58;27.91;99649.44;5049401;28;19951;-86
2022/08/14 11:49:52;;;;;;;;;;;;;;;31.75;27.60;99653.69;5050196;28;19928;-85
2022/08/14 11:52:20;;;;;;;;;;;;;;;33.48;25.99;99641.06;5043349;28;20031;-85
2022/08/14 11:54:57;;;;;;;;;;;;;;;34.95;23.97;99643.00;5049332;28;20013;-87
2022/08/14 11:57:24;;;;;;;;;;;;;;;36.34;23.02;99650.13;5050307;28;20027;-86
2022/08/14 12:00:04;;;;;;;;;;;;;;;36.92;22.66;99636.72;5050279;28;20288;-86
2022/08/14 12:02:34;;;;;;;;;;;;;;;37.89;21.94;99636.97;5049337;28;19929;-84
2022/08/14 12:05:31;;;;;;;;;;;;;;;38.29;21.46;99636.66;5043940;28;19929;-85
2022/08/14 12:08:02;;;;;;;;;;;;;;;38.59;20.87;99638.78;5049638;28;19928;-86
2022/08/14 12:10:38;;;;;;;;;;;;;;;36.40;22.22;99639.25;5048928;28;19933;-85
2022/08/14 12:13:12;;;;;;;;;;;;;;;35.49;23.59;99625.56;5049306;28;19929;-87
2022/08/14 12:15:44;;;;;;;;;;;;;;;34.80;24.11;99634.94;5048142;28;19932;-86
2022/08/14 12:18:18;;;;;;;;;;;;;;;35.00;23.96;99624.22;5049823;28;20342;-86
2022/08/14 12:20:48;;;;;;;;;;;;;;;33.85;24.67;99629.88;5032892;28;19935;-85
2022/08/14 12:23:25;;;;;;;;;;;;;;;33.05;26.38;99629.41;5049008;28;19929;-86
2022/08/14 12:26:07;;;;;;;;;;;;;;;33.21;26.03;99632.78;5049940;28;20028;-86
2022/08/14 12:29:23;;;;;;;;;;;;;;;33.45;25.46;99625.84;5036018;28;19928;-84
2022/08/14 12:31:57;;;;;;;;;;;;;;;33.64;25.16;99626.84;5007796;28;19929;-86
2022/08/14 12:34:29;;;;;;;;;;;;;;;33.91;25.08;99613.50;5008038;28;19972;-86
2022/08/14 12:37:04;;;;;;;;;;;;;;;34.42;25.04;99626.69;5009634;28;19929;-85
2022/08/14 12:39:33;;;;;;;;;;;;;;;35.68;23.79;99630.03;4994569;28;19929;-85
2022/08/14 12:42:06;;;;;;;;;;;;;;;35.96;23.05;99623.63;4996157;28;19934;-86
2022/08/14 12:44:38;;;;;;;;;;;;;;;35.61;23.64;99627.22;4993203;28;19934;-86
2022/08/14 12:47:11;;;;;;;;;;;;;;;35.92;23.37;99620.00;4992313;28;20053;-87
2022/08/14 12:49:59;;;;;;;;;;;;;;;36.57;23.01;99615.97;4983010;28;19937;-87
2022/08/14 12:52:28;;;;;;;;;;;;;;;37.28;22.07;99609.25;4992047;28;20089;-86
2022/08/14 12:55:19;;;;;;;;;;;;;;;37.17;22.22;99618.94;4975381;28;20439;-85
2022/08/14 12:57:49;;;;;;;;;;;;;;;37.29;21.78;99610.81;4991670;28;19930;-87
2022/08/14 13:00:22;;;;;;;;;;;;;;;38.16;21.29;99611.81;4992049;28;19945;-86
2022/08/14 13:02:51;;;;;;;;;;;;;;;38.41;20.96;99613.56;4976420;28;20320;-86
2022/08/14 13:05:27;;;;;;;;;;;;;;;38.59;20.61;99607.75;4978749;28;19929;-86
2022/08/14 13:07:56;;;;;;;;;;;;;;;39.41;19.99;99605.94;5025231;28;19968;-86
2022/08/14 13:10:25;;;;;;;;;;;;;;;39.41;20.08;99606.72;5053223;28;19968;-87
2022/08/14 13:13:12;;;;;;;;;;;;;;;38.58;20.09;99604.13;5053394;28;19975;-86
2022/08/14 13:15:44;;;;;;;;;;;;;;;36.96;21.62;99606.56;5051721;28;19968;-86
2022/08/14 13:18:14;;;;;;;;;;;;;;;37.68;20.85;99600.56;5053308;28;19979;-86
2022/08/14 13:20:42;;;;;;;;;;;;;;;39.32;19.74;99608.44;5053193;28;19929;-86
2022/08/14 13:23:21;;;;;;;;;;;;;;;40.15;18.77;99610.78;5052948;28;19935;-86
2022/08/14 13:25:58;;;;;;;;;;;;;;;40.62;18.35;99605.06;5066233;28;19933;-86
2022/08/14 13:28:26;;;;;;;;;;;;;;;39.81;19.07;99598.44;5047751;28;20024;-86
2022/08/14 13:31:09;;;;;;;;;;;;;;;40.06;19.13;99598.00;5052760;28;19951;-85
2022/08/14 13:33:44;;;;;;;;;;;;;;;38.93;19.55;99601.34;5019572;28;20341;-86
2022/08/14 13:36:12;;;;;;;;;;;;;;;38.40;20.20;99599.91;5068097;28;19972;-86
2022/08/14 13:38:59;;;;;;;;;;;;;;;38.19;19.94;99601.72;5052064;28;19952;-87
2022/08/14 13:41:26;;;;;;;;;;;;;;;38.75;19.88;99596.69;5050408;28;19929;-87
2022/08/14 13:44:02;;;;;;;;;;;;;;;38.46;19.97;99589.78;5051507;28;20384;-87
2022/08/14 13:46:30;;;;;;;;;;;;;;;37.34;21.10;99584.28;5050355;28;19928;-88